map of LGEL home
LGEL - Airport
Location
City:  Elefsis, Greece
ICAO:LGEL

Details
Type:Airport (Aerodrome, Airfield)
Use:Military
Latitude:3803'50"N (38.063831)
Longitude:2333'22"E (23.556011)
Datum:WGS 1984
Elevation:143 ft (44 m)
Variation:4.55E (WMM2015 magnetic declination)
0.10 annual change
Runways:1
Longest:8985 × 131 ft (2739 × 40 m), paved

Time
Time Zone:UTC+2 (DST+3)
Local Time:

Weather
METAR:LGEL 150920Z 15013KT 9999 SCT025 SCT070 19/12 Q1016
TAF:LGEL 150500Z 1506/1606 VRB03KT 9999 FEW010 SCT025
TEMPO 1510/1516 SCT020 BKN070 PROB30
TEMPO 1506/1508 5000 BR SCT010 PROB40
TEMPO 1600/1606 5000 RA FEW010 BKN020 BKN070
BECMG 1506/1508 17015KT

Related Locations
Nearby:
Farthest:RMT: 11346 mi / 18260 km
Rimatara [Rimatara Airport], PF

Find:

   beyond  
but within

Other Information
Maps:
NOTAMs:
Links:
Sources:

  
  • flag of Greece
  

Airport Diagram

Airport diagram for LGEL

Larger airport diagram (OBSOLETE) from NGA

Sectional Chart

Flight Planning
at skyvector.com

Satellite Image

Google Maps Satellite view

 

Copyright © 2004-2018 Karl L. Swartz. All rights reserved.
The Great Circle Mapper name and logo are trademarks of the Great Circle Mapper.
All other trademarks mentioned herein belong to their respective owners.
Please see credits for attibutions and further copyright information.

  Follow gcmap on Facebook Follow gcmap on Twitter Follow gcmap on Google+ GCmap on LinkedIn

hCard Microformat

Geo Microformat